地図

経路データ

SID SEASON NUMBER BASIN SUBBASIN NAME ISO_TIME NATURE LAT LON WMO_WIND WMO_PRES WMO_AGENCY TRACK_TYPE DIST2LAND LANDFALL IFLAG USA_AGENCY USA_ATCF_ID USA_LAT USA_LON USA_RECORD USA_STATUS USA_WIND USA_PRES USA_SSHS USA_R34_NE USA_R34_SE USA_R34_SW USA_R34_NW USA_R50_NE USA_R50_SE USA_R50_SW USA_R50_NW USA_R64_NE USA_R64_SE USA_R64_SW USA_R64_NW USA_POCI USA_ROCI USA_RMW USA_EYE TOKYO_LAT TOKYO_LON TOKYO_GRADE TOKYO_WIND TOKYO_PRES TOKYO_R50_DIR TOKYO_R50_LONG TOKYO_R50_SHORT TOKYO_R30_DIR TOKYO_R30_LONG TOKYO_R30_SHORT TOKYO_LAND CMA_LAT CMA_LON CMA_CAT CMA_WIND CMA_PRES HKO_LAT HKO_LON HKO_CAT HKO_WIND HKO_PRES NEWDELHI_LAT NEWDELHI_LON NEWDELHI_GRADE NEWDELHI_WIND NEWDELHI_PRES NEWDELHI_CI NEWDELHI_DP NEWDELHI_POCI REUNION_LAT REUNION_LON REUNION_TYPE REUNION_WIND REUNION_PRES REUNION_TNUM REUNION_CI REUNION_RMW REUNION_R34_NE REUNION_R34_SE REUNION_R34_SW REUNION_R34_NW REUNION_R50_NE REUNION_R50_SE REUNION_R50_SW REUNION_R50_NW REUNION_R64_NE REUNION_R64_SE REUNION_R64_SW REUNION_R64_NW BOM_LAT BOM_LON BOM_TYPE BOM_WIND BOM_PRES BOM_TNUM BOM_CI BOM_RMW BOM_R34_NE BOM_R34_SE BOM_R34_SW BOM_R34_NW BOM_R50_NE BOM_R50_SE BOM_R50_SW BOM_R50_NW BOM_R64_NE BOM_R64_SE BOM_R64_SW BOM_R64_NW BOM_ROCI BOM_POCI BOM_EYE BOM_POS_METHOD BOM_PRES_METHOD NADI_LAT NADI_LON NADI_CAT NADI_WIND NADI_PRES WELLINGTON_LAT WELLINGTON_LON WELLINGTON_WIND WELLINGTON_PRES DS824_LAT DS824_LON DS824_STAGE DS824_WIND DS824_PRES TD9636_LAT TD9636_LON TD9636_STAGE TD9636_WIND TD9636_PRES TD9635_LAT TD9635_LON TD9635_WIND TD9635_PRES TD9635_ROCI NEUMANN_LAT NEUMANN_LON NEUMANN_CLASS NEUMANN_WIND NEUMANN_PRES MLC_LAT MLC_LON MLC_CLASS MLC_WIND MLC_PRES USA_GUST BOM_GUST BOM_GUST_PER REUNION_GUST REUNION_GUST_PER USA_SEAHGT USA_SEARAD_NE USA_SEARAD_SE USA_SEARAD_SW USA_SEARAD_NW STORM_SPEED STORM_DIR
1925220N25132 1925 33 WP MM NOT_NAMED 1925-08-07 22:00:00 NR 24.9000 132.100 main 694 670 __________O___ -1 24.9000 132.100 2 7 326
1925220N25132 1925 33 WP MM NOT_NAMED 1925-08-08 00:00:00 NR 25.0825 131.960 main 670 634 __________P___ -1 25.0825 131.960 2 7 326
1925220N25132 1925 33 WP MM NOT_NAMED 1925-08-08 03:00:00 NR 25.3564 131.759 main 634 609 __________P___ -1 25.3564 131.759 2 7 328
1925220N25132 1925 33 WP MM NOT_NAMED 1925-08-08 06:00:00 NR 25.6312 131.580 main 609 573 __________P___ -1 25.6312 131.580 2 6 332
1925220N25132 1925 33 WP MM NOT_NAMED 1925-08-08 09:00:00 NR 25.9074 131.437 main 573 562 __________P___ -1 25.9074 131.437 2 6 336
1925220N25132 1925 33 WP MM NOT_NAMED 1925-08-08 10:00:00 NR 26.0000 131.400 main 562 539 __________O___ -1 26.0000 131.400 2 6 343
1925220N25132 1925 33 WP MM NOT_NAMED 1925-08-08 12:00:00 NR 26.1854 131.344 main 539 505 __________P___ -1 26.1854 131.344 2 6 349
1925220N25132 1925 33 WP MM NOT_NAMED 1925-08-08 15:00:00 NR 26.4575 131.297 main 505 483 __________P___ -1 26.4575 131.297 2 5 354
1925220N25132 1925 33 WP MM NOT_NAMED 1925-08-08 18:00:00 NR 26.7115 131.285 main 483 461 __________P___ -1 26.7115 131.285 2 5 0
1925220N25132 1925 33 WP MM NOT_NAMED 1925-08-08 21:00:00 NR 26.9346 131.294 main 461 450 __________P___ -1 26.9346 131.294 2 4 0
1925220N25132 1925 33 WP MM NOT_NAMED 1925-08-08 22:00:00 NR 27.0000 131.300 main 450 439 __________O___ -1 27.0000 131.300 2 4 0
1925220N25132 1925 33 WP MM NOT_NAMED 1925-08-09 00:00:00 NR 27.1119 131.297 main 439 428 __________P___ -1 27.1119 131.297 2 3 0
1925220N25132 1925 33 WP MM NOT_NAMED 1925-08-09 03:00:00 NR 27.2481 131.306 main 428 406 __________P___ -1 27.2481 131.306 2 3 7
1925220N25132 1925 33 WP MM NOT_NAMED 1925-08-09 06:00:00 NR 27.3604 131.332 main 406 396 __________P___ -1 27.3604 131.332 2 2 18
1925220N25132 1925 33 WP MM NOT_NAMED 1925-08-09 09:00:00 NR 27.4645 131.379 main 396 396 __________P___ -1 27.4645 131.379 2 2 19
1925220N25132 1925 33 WP MM NOT_NAMED 1925-08-09 10:00:00 NR 27.5000 131.400 main 396 385 __________O___ -1 27.5000 131.400 2 3 22
1925220N25132 1925 33 WP MM NOT_NAMED 1925-08-09 12:00:00 NR 27.5964 131.439 main 385 376 __________P___ -1 27.5964 131.439 2 3 23
1925220N25132 1925 33 WP MM NOT_NAMED 1925-08-09 15:00:00 NR 27.7413 131.516 main 376 356 __________P___ -1 27.7413 131.516 2 3 30
1925220N25132 1925 33 WP MM NOT_NAMED 1925-08-09 18:00:00 NR 27.8727 131.619 main 356 348 __________P___ -1 27.8727 131.619 2 3 41
1925220N25132 1925 33 WP MM NOT_NAMED 1925-08-09 21:00:00 NR 27.9750 131.750 main 348 351 __________P___ -1 27.9750 131.750 2 3 51
1925220N25132 1925 33 WP MM NOT_NAMED 1925-08-09 22:00:00 NR 28.0000 131.800 main 351 351 __________O___ -1 28.0000 131.800 2 3 66
1925220N25132 1925 33 WP MM NOT_NAMED 1925-08-10 00:00:00 NR 28.0391 131.913 main 354 347 __________P___ -1 28.0391 131.913 2 3 76
1925220N25132 1925 33 WP MM NOT_NAMED 1925-08-10 03:00:00 NR 28.0665 132.108 main 350 350 __________P___ -1 28.0665 132.108 2 4 87
1925220N25132 1925 33 WP MM NOT_NAMED 1925-08-10 06:00:00 NR 28.0589 132.319 main 358 358 __________P___ -1 28.0589 132.319 2 4 97
1925220N25132 1925 33 WP MM NOT_NAMED 1925-08-10 09:00:00 NR 28.0196 132.532 main 377 377 __________P___ -1 28.0196 132.532 2 4 103
1925220N25132 1925 33 WP MM NOT_NAMED 1925-08-10 10:00:00 NR 28.0000 132.600 main 381 381 __________O___ -1 28.0000 132.600 2 4 107
1925220N25132 1925 33 WP MM NOT_NAMED 1925-08-10 12:00:00 NR 27.9641 132.738 main 386 386 __________P___ -1 27.9641 132.738 2 4 111
1925220N25132 1925 33 WP MM NOT_NAMED 1925-08-10 15:00:00 NR 27.8851 132.940 main 406 411 __________P___ -1 27.8851 132.940 2 4 119
1925220N25132 1925 33 WP MM NOT_NAMED 1925-08-10 18:00:00 NR 27.7788 133.120 main 425 425 __________P___ -1 27.7788 133.120 2 4 130
1925220N25132 1925 33 WP MM NOT_NAMED 1925-08-10 21:00:00 NR 27.6483 133.263 main 455 455 __________P___ -1 27.6483 133.263 2 4 139
1925220N25132 1925 33 WP MM NOT_NAMED 1925-08-10 22:00:00 NR 27.6000 133.300 main 455 455 __________O___ -1 27.6000 133.300 2 3 151
1925220N25132 1925 33 WP MM NOT_NAMED 1925-08-11 00:00:00 NR 27.4977 133.361 main 470 470 __________P___ -1 27.4977 133.361 2 4 159
1925220N25132 1925 33 WP MM NOT_NAMED 1925-08-11 03:00:00 NR 27.3254 133.416 main 488 488 __________P___ -1 27.3254 133.416 2 4 171
1925220N25132 1925 33 WP MM NOT_NAMED 1925-08-11 06:00:00 NR 27.1416 133.431 main 508 508 __________P___ -1 27.1416 133.431 2 4 181
1925220N25132 1925 33 WP MM NOT_NAMED 1925-08-11 09:00:00 NR 26.9586 133.412 main 517 527 __________P___ -1 26.9586 133.412 2 4 0
1925220N25132 1925 33 WP MM NOT_NAMED 1925-08-11 10:00:00 NR 26.9000 133.400 main 527 527 __________O___ -1 26.9000 133.400 2 3 192
1925220N25132 1925 33 WP MM NOT_NAMED 1925-08-11 12:00:00 NR 26.7943 133.373 main 537 537 __________P___ -1 26.7943 133.373 2 3 198
1925220N25132 1925 33 WP MM NOT_NAMED 1925-08-11 15:00:00 NR 26.6421 133.307 main 552 552 __________P___ -1 26.6421 133.307 2 3 204
1925220N25132 1925 33 WP MM NOT_NAMED 1925-08-11 18:00:00 NR 26.4946 133.222 main 558 558 __________P___ -1 26.4946 133.222 2 3 208
1925220N25132 1925 33 WP MM NOT_NAMED 1925-08-11 21:00:00 NR 26.3488 133.130 main 574 574 __________P___ -1 26.3488 133.130 2 3 210
1925220N25132 1925 33 WP MM NOT_NAMED 1925-08-11 22:00:00 NR 26.3000 133.100 main 574 574 __________O___ -1 26.3000 133.100 2 3 209
1925220N25132 1925 33 WP MM NOT_NAMED 1925-08-12 00:00:00 NR 26.1974 133.042 main 580 580 __________P___ -1 26.1974 133.042 2 3 207
1925220N25132 1925 33 WP MM NOT_NAMED 1925-08-12 03:00:00 NR 26.0434 132.955 main 601 598 __________P___ -1 26.0434 132.955 2 3 206
1925220N25132 1925 33 WP MM NOT_NAMED 1925-08-12 06:00:00 NR 25.8921 132.876 main 608 608 __________P___ -1 25.8921 132.876 2 3 203
1925220N25132 1925 33 WP MM NOT_NAMED 1925-08-12 09:00:00 NR 25.7467 132.815 main 626 626 __________P___ -1 25.7467 132.815 2 3 201
1925220N25132 1925 33 WP MM NOT_NAMED 1925-08-12 10:00:00 NR 25.7000 132.800 main 626 626 __________O___ -1 25.7000 132.800 2 3 198
1925220N25132 1925 33 WP MM NOT_NAMED 1925-08-12 12:00:00 NR 25.6109 132.780 main 636 636 __________P___ -1 25.6109 132.780 2 3 183
1925220N25132 1925 33 WP MM NOT_NAMED 1925-08-12 15:00:00 NR 25.4837 132.770 main 647 647 __________P___ -1 25.4837 132.770 2 3 184
1925220N25132 1925 33 WP MM NOT_NAMED 1925-08-12 18:00:00 NR 25.3612 132.776 main 658 658 __________P___ -1 25.3612 132.776 2 2 176
1925220N25132 1925 33 WP MM NOT_NAMED 1925-08-12 21:00:00 NR 25.2404 132.793 main 679 679 __________P___ -1 25.2404 132.793 2 2 171
1925220N25132 1925 33 WP MM NOT_NAMED 1925-08-12 22:00:00 NR 25.2000 132.800 main 679 679 __________O___ -1 25.2000 132.800 3 3 172
1925220N25132 1925 33 WP MM NOT_NAMED 1925-08-13 00:00:00 NR 25.1167 132.808 main 690 690 __________P___ -1 25.1167 132.808 3 3 174
1925220N25132 1925 33 WP MM NOT_NAMED 1925-08-13 03:00:00 NR 24.9917 132.827 main 700 700 __________P___ -1 24.9917 132.827 3 3 171
1925220N25132 1925 33 WP MM NOT_NAMED 1925-08-13 06:00:00 NR 24.8667 132.853 main 714 714 __________P___ -1 24.8667 132.853 3 3 167
1925220N25132 1925 33 WP MM NOT_NAMED 1925-08-13 09:00:00 NR 24.7417 132.887 main 735 735 __________P___ -1 24.7417 132.887 3 3 165
1925220N25132 1925 33 WP MM NOT_NAMED 1925-08-13 10:00:00 NR 24.7000 132.900 main 735 735 __________O___ -1 24.7000 132.900 4 3 167
1925220N25132 1925 33 WP MM NOT_NAMED 1925-08-13 12:00:00 NR 24.6140 132.928 main 746 746 __________P___ -1 24.6140 132.928 4 3 161
1925220N25132 1925 33 WP MM NOT_NAMED 1925-08-13 15:00:00 NR 24.4851 132.975 main 760 760 __________P___ -1 24.4851 132.975 4 3 160
1925220N25132 1925 33 WP MM NOT_NAMED 1925-08-13 18:00:00 NR 24.3588 133.028 main 770 770 __________P___ -1 24.3588 133.028 4 3 158
1925220N25132 1925 33 WP MM NOT_NAMED 1925-08-13 21:00:00 NR 24.2383 133.082 main 795 795 __________P___ -1 24.2383 133.082 4 3 157
1925220N25132 1925 33 WP MM NOT_NAMED 1925-08-13 22:00:00 NR 24.2000 133.100 main 795 795 __________O___ -1 24.2000 133.100 4 2 158
1925220N25132 1925 33 WP MM NOT_NAMED 1925-08-14 00:00:00 NR 24.1224 133.131 main 805 805 __________P___ -1 24.1224 133.131 4 2 159
1925220N25132 1925 33 WP MM NOT_NAMED 1925-08-14 03:00:00 NR 24.0121 133.177 main 819 819 __________P___ -1 24.0121 133.177 4 2 158
1925220N25132 1925 33 WP MM NOT_NAMED 1925-08-14 06:00:00 NR 23.9121 133.225 main 830 830 __________P___ -1 23.9121 133.225 4 2 153
1925220N25132 1925 33 WP MM NOT_NAMED 1925-08-14 09:00:00 NR 23.8254 133.280 main 843 843 __________P___ -1 23.8254 133.280 4 2 149
1925220N25132 1925 33 WP MM NOT_NAMED 1925-08-14 10:00:00 NR 23.8000 133.300 main 843 843 __________O___ -1 23.8000 133.300 4 2 145
1925220N25132 1925 33 WP MM NOT_NAMED 1925-08-14 12:00:00 NR 23.7395 133.336 main 854 854 __________P___ -1 23.7395 133.336 4 2 148
1925220N25132 1925 33 WP MM NOT_NAMED 1925-08-14 15:00:00 NR 23.6610 133.397 main 857 857 __________P___ -1 23.6610 133.397 4 2 136
1925220N25132 1925 33 WP MM NOT_NAMED 1925-08-14 18:00:00 NR 23.6083 133.471 main 871 871 __________P___ -1 23.6083 133.471 4 2 113
1925220N25132 1925 33 WP MM NOT_NAMED 1925-08-14 21:00:00 NR 23.5941 133.564 main 874 874 __________P___ -1 23.5941 133.564 4 2 94
1925220N25132 1925 33 WP MM NOT_NAMED 1925-08-14 22:00:00 NR 23.6000 133.600 main 874 874 __________O___ -1 23.6000 133.600 4 3 73
1925220N25132 1925 33 WP MM NOT_NAMED 1925-08-15 00:00:00 NR 23.6299 133.696 main 877 867 __________P___ -1 23.6299 133.696 4 3 65
1925220N25132 1925 33 WP MM NOT_NAMED 1925-08-15 03:00:00 NR 23.7125 133.859 main 874 863 __________P___ -1 23.7125 133.859 4 4 57
1925220N25132 1925 33 WP MM NOT_NAMED 1925-08-15 06:00:00 NR 23.8263 134.023 main 867 854 __________P___ -1 23.8263 134.023 4 4 49
1925220N25132 1925 33 WP MM NOT_NAMED 1925-08-15 09:00:00 NR 23.9560 134.163 main 854 854 __________P___ -1 23.9560 134.163 4 4 43
1925220N25132 1925 33 WP MM NOT_NAMED 1925-08-15 10:00:00 NR 24.0000 134.200 main 854 854 __________O___ -1 24.0000 134.200 4 2 44
1925220N25132 1925 33 WP MM NOT_NAMED 1925-08-15 12:00:00 NR 24.0251 134.243 main 854 847 __________P___ -1 24.0251 134.243 4 1 45
1925220N25132 1925 33 WP MM NOT_NAMED 1925-08-15 15:00:00 NR 24.0680 134.275 main 847 837 __________P___ -1 24.0680 134.275 4 2 12
1925220N25132 1925 33 WP MM NOT_NAMED 1925-08-15 18:00:00 NR 24.1699 134.286 main 837 817 __________P___ -1 24.1699 134.286 4 3 0
1925220N25132 1925 33 WP MM NOT_NAMED 1925-08-15 21:00:00 NR 24.3900 134.295 main 817 807 __________P___ -1 24.3900 134.295 4 5 4
1925220N25132 1925 33 WP MM NOT_NAMED 1925-08-15 22:00:00 NR 24.5000 134.300 main 807 777 __________O___ -1 24.5000 134.300 4 8 5
1925220N25132 1925 33 WP MM NOT_NAMED 1925-08-16 00:00:00 NR 24.7999 134.328 main 777 722 __________P___ -1 24.7999 134.328 4 11 4
1925220N25132 1925 33 WP MM NOT_NAMED 1925-08-16 03:00:00 NR 25.3759 134.375 main 722 655 __________P___ -1 25.3759 134.375 4 13 4
1925220N25132 1925 33 WP MM NOT_NAMED 1925-08-16 06:00:00 NR 26.0503 134.428 main 655 595 __________P___ -1 26.0503 134.428 4 14 4
1925220N25132 1925 33 WP MM NOT_NAMED 1925-08-16 09:00:00 NR 26.7638 134.482 main 595 575 __________P___ -1 26.7638 134.482 4 14 4
1925220N25132 1925 33 WP MM NOT_NAMED 1925-08-16 10:00:00 NR 27.0000 134.500 main 575 528 __________O___ -1 27.0000 134.500 4 14 3
1925220N25132 1925 33 WP MM NOT_NAMED 1925-08-16 12:00:00 NR 27.4604 134.535 main 528 480 __________P___ -1 27.4604 134.535 4 14 4
1925220N25132 1925 33 WP MM NOT_NAMED 1925-08-16 15:00:00 NR 28.1241 134.586 main 480 422 __________P___ -1 28.1241 134.586 4 13 4
1925220N25132 1925 33 WP MM NOT_NAMED 1925-08-16 18:00:00 NR 28.7647 134.635 main 422 386 __________P___ -1 28.7647 134.635 4 13 4
1925220N25132 1925 33 WP MM NOT_NAMED 1925-08-16 21:00:00 NR 29.3921 134.684 main 386 374 __________P___ -1 29.3921 134.684 4 13 4
1925220N25132 1925 33 WP MM NOT_NAMED 1925-08-16 22:00:00 NR 29.6000 134.700 main 374 __________O___ -1 29.6000 134.700 7 13 7

デジタル台風データ・検索

IBTrACS Databaseについて

本データベースは、米国NOAAが公開する1842年以降の世界の熱帯低気圧のベストトラックデータアーカイブInternational Best Track Archive for Climate Stewardship (IBTrACS)を、ウェブで閲覧しやすい形式に変換したものです。

最終更新日:2021-12-06